sensor_id;sensor_type;location;lat;lon;timestamp;pressure;altitude;pressure_sealevel;temperature
58102;BMP280;52034;51.926;6.320;2023-06-14T00:00:41;101459.03;;;19.89
58102;BMP280;52034;51.926;6.320;2023-06-14T00:01:43;101459.03;;;19.89
58102;BMP280;52034;51.926;6.320;2023-06-14T00:02:46;101457.56;;;19.86
58102;BMP280;52034;51.926;6.320;2023-06-14T00:03:46;101462.56;;;19.81
58102;BMP280;52034;51.926;6.320;2023-06-14T00:04:47;101466.81;;;19.80
58102;BMP280;52034;51.926;6.320;2023-06-14T00:05:48;101456.81;;;19.77
58102;BMP280;52034;51.926;6.320;2023-06-14T00:06:48;101454.00;;;19.83
58102;BMP280;52034;51.926;6.320;2023-06-14T00:07:50;101462.56;;;19.81
58102;BMP280;52034;51.926;6.320;2023-06-14T00:08:53;101458.25;;;19.76
58102;BMP280;52034;51.926;6.320;2023-06-14T00:09:54;101455.38;;;19.72
58102;BMP280;52034;51.926;6.320;2023-06-14T00:10:54;101461.78;;;19.75
58102;BMP280;52034;51.926;6.320;2023-06-14T00:11:55;101460.34;;;19.74
58102;BMP280;52034;51.926;6.320;2023-06-14T00:12:55;101461.06;;;19.72
58102;BMP280;52034;51.926;6.320;2023-06-14T00:13:55;101460.34;;;19.74
58102;BMP280;52034;51.926;6.320;2023-06-14T00:14:56;101454.66;;;19.72
58102;BMP280;52034;51.926;6.320;2023-06-14T00:15:57;101463.13;;;19.66
58102;BMP280;52034;51.926;6.320;2023-06-14T00:16:57;101465.25;;;19.63
58102;BMP280;52034;51.926;6.320;2023-06-14T00:17:58;101462.44;;;19.65
58102;BMP280;52034;51.926;6.320;2023-06-14T00:19:02;101460.25;;;19.62
58102;BMP280;52034;51.926;6.320;2023-06-14T00:20:06;101461.63;;;19.57
58102;BMP280;52034;51.926;6.320;2023-06-14T00:21:06;101460.97;;;19.58
58102;BMP280;52034;51.926;6.320;2023-06-14T00:22:07;101466.66;;;19.58
58102;BMP280;52034;51.926;6.320;2023-06-14T00:23:07;101472.31;;;19.56
58102;BMP280;52034;51.926;6.320;2023-06-14T00:24:07;101475.16;;;19.54
58102;BMP280;52034;51.926;6.320;2023-06-14T00:25:08;101465.91;;;19.54
58102;BMP280;52034;51.926;6.320;2023-06-14T00:26:08;101470.78;;;19.47
58102;BMP280;52034;51.926;6.320;2023-06-14T00:27:09;101473.00;;;19.51
58102;BMP280;52034;51.926;6.320;2023-06-14T00:28:10;101475.16;;;19.54
58102;BMP280;52034;51.926;6.320;2023-06-14T00:29:10;101472.97;;;19.53
58102;BMP280;52034;51.926;6.320;2023-06-14T00:30:11;101475.13;;;19.52
58102;BMP280;52034;51.926;6.320;2023-06-14T00:31:12;101471.50;;;19.46
58102;BMP280;52034;51.926;6.320;2023-06-14T00:32:12;101477.13;;;19.40
58102;BMP280;52034;51.926;6.320;2023-06-14T00:33:13;101475.69;;;19.39
58102;BMP280;52034;51.926;6.320;2023-06-14T00:34:13;101473.50;;;19.29
58102;BMP280;52034;51.926;6.320;2023-06-14T00:35:15;101475.66;;;19.33
58102;BMP280;52034;51.926;6.320;2023-06-14T00:36:15;101478.50;;;19.35
58102;BMP280;52034;51.926;6.320;2023-06-14T00:37:16;101479.25;;;19.35
58102;BMP280;52034;51.926;6.320;2023-06-14T00:38:17;101477.75;;;19.30
58102;BMP280;52034;51.926;6.320;2023-06-14T00:39:17;101483.53;;;19.36
58102;BMP280;52034;51.926;6.320;2023-06-14T00:40:17;101485.59;;;19.30
58102;BMP280;52034;51.926;6.320;2023-06-14T00:41:19;101489.84;;;19.29
58102;BMP280;52034;51.926;6.320;2023-06-14T00:42:26;101489.06;;;19.22
58102;BMP280;52034;51.926;6.320;2023-06-14T00:43:27;101487.66;;;19.23
58102;BMP280;52034;51.926;6.320;2023-06-14T00:44:27;101489.09;;;19.24
58102;BMP280;52034;51.926;6.320;2023-06-14T00:45:28;101486.97;;;19.27
58102;BMP280;52034;51.926;6.320;2023-06-14T00:46:28;101486.22;;;19.22
58102;BMP280;52034;51.926;6.320;2023-06-14T00:47:29;101483.31;;;19.18
58102;BMP280;52034;51.926;6.320;2023-06-14T00:48:29;101485.50;;;19.22
58102;BMP280;52034;51.926;6.320;2023-06-14T00:49:30;101489.72;;;19.17
58102;BMP280;52034;51.926;6.320;2023-06-14T00:50:32;101475.47;;;19.15
58102;BMP280;52034;51.926;6.320;2023-06-14T00:51:33;101486.19;;;19.16
58102;BMP280;52034;51.926;6.320;2023-06-14T00:52:34;101491.78;;;19.10
58102;BMP280;52034;51.926;6.320;2023-06-14T00:53:35;101475.38;;;19.07
58102;BMP280;52034;51.926;6.320;2023-06-14T00:54:35;101483.22;;;19.06
58102;BMP280;52034;51.926;6.320;2023-06-14T00:55:38;101484.56;;;19.01
58102;BMP280;52034;51.926;6.320;2023-06-14T00:56:39;101486.72;;;19.03
58102;BMP280;52034;51.926;6.320;2023-06-14T00:57:40;101485.28;;;19.04
58102;BMP280;52034;51.926;6.320;2023-06-14T00:58:41;101491.66;;;19.00
58102;BMP280;52034;51.926;6.320;2023-06-14T00:59:44;101480.97;;;19.01
58102;BMP280;52034;51.926;6.320;2023-06-14T01:00:44;101487.38;;;18.99
58102;BMP280;52034;51.926;6.320;2023-06-14T01:01:45;101484.47;;;18.93
58102;BMP280;52034;51.926;6.320;2023-06-14T01:02:45;101487.31;;;18.95
58102;BMP280;52034;51.926;6.320;2023-06-14T01:03:46;101485.88;;;18.92
58102;BMP280;52034;51.926;6.320;2023-06-14T01:04:48;101482.41;;;18.98
58102;BMP280;52034;51.926;6.320;2023-06-14T01:06:00;101491.63;;;18.96
58102;BMP280;52034;51.926;6.320;2023-06-14T01:07:13;101482.34;;;18.96
58102;BMP280;52034;51.926;6.320;2023-06-14T01:08:21;101493.72;;;18.92
58102;BMP280;52034;51.926;6.320;2023-06-14T01:09:32;101490.84;;;18.92
58102;BMP280;52034;51.926;6.320;2023-06-14T01:10:58;101490.84;;;18.90
58102;BMP280;52034;51.926;6.320;2023-06-14T01:12:49;101489.38;;;18.87
58102;BMP280;52034;51.926;6.320;2023-06-14T01:13:34;101494.28;;;18.82
58102;BMP280;52034;51.926;6.320;2023-06-14T01:14:36;101501.38;;;18.79
58102;BMP280;52034;51.926;6.320;2023-06-14T01:15:38;101493.50;;;18.76
58102;BMP280;52034;51.926;6.320;2023-06-14T01:16:39;101492.75;;;18.71
58102;BMP280;52034;51.926;6.320;2023-06-14T01:17:41;101491.25;;;18.68
58102;BMP280;52034;51.926;6.320;2023-06-14T01:18:44;101491.91;;;18.65
58102;BMP280;52034;51.926;6.320;2023-06-14T01:19:48;101486.94;;;18.63
58102;BMP280;52034;51.926;6.320;2023-06-14T01:20:48;101492.63;;;18.63
58102;BMP280;52034;51.926;6.320;2023-06-14T01:21:49;101490.44;;;18.60
58102;BMP280;52034;51.926;6.320;2023-06-14T01:22:54;101488.25;;;18.56
58102;BMP280;52034;51.926;6.320;2023-06-14T01:23:54;101488.25;;;18.56
58102;BMP280;52034;51.926;6.320;2023-06-14T01:24:55;101480.41;;;18.53
58102;BMP280;52034;51.926;6.320;2023-06-14T01:25:55;101488.16;;;18.50
58102;BMP280;52034;51.926;6.320;2023-06-14T01:26:56;101488.16;;;18.50
58102;BMP280;52034;51.926;6.320;2023-06-14T01:28:02;101484.56;;;18.46
58102;BMP280;52034;51.926;6.320;2023-06-14T01:29:04;101481.03;;;18.47
58102;BMP280;52034;51.926;6.320;2023-06-14T01:30:05;101483.84;;;18.45
58102;BMP280;52034;51.926;6.320;2023-06-14T01:31:06;101478.84;;;18.44
58102;BMP280;52034;51.926;6.320;2023-06-14T01:32:07;101478.94;;;18.50
58102;BMP280;52034;51.926;6.320;2023-06-14T01:33:08;101481.06;;;18.49
58102;BMP280;52034;51.926;6.320;2023-06-14T01:34:09;101483.88;;;18.47
58102;BMP280;52034;51.926;6.320;2023-06-14T01:35:10;101476.75;;;18.44
58102;BMP280;52034;51.926;6.320;2023-06-14T01:36:11;101480.28;;;18.45
58102;BMP280;52034;51.926;6.320;2023-06-14T01:37:12;101489.56;;;18.47
58102;BMP280;52034;51.926;6.320;2023-06-14T01:38:14;101492.38;;;18.45
58102;BMP280;52034;51.926;6.320;2023-06-14T01:39:15;101488.03;;;18.40
58102;BMP280;52034;51.926;6.320;2023-06-14T01:40:17;101482.31;;;18.38
58102;BMP280;52034;51.926;6.320;2023-06-14T01:41:18;101480.19;;;18.39
58102;BMP280;52034;51.926;6.320;2023-06-14T01:42:19;101490.06;;;18.34
58102;BMP280;52034;51.926;6.320;2023-06-14T01:43:20;101482.97;;;18.35
58102;BMP280;52034;51.926;6.320;2023-06-14T01:44:22;101482.88;;;18.29
58102;BMP280;52034;51.926;6.320;2023-06-14T01:45:23;101487.13;;;18.28
58102;BMP280;52034;51.926;6.320;2023-06-14T01:46:24;101486.41;;;18.27
58102;BMP280;52034;51.926;6.320;2023-06-14T01:47:24;101483.50;;;18.21
58102;BMP280;52034;51.926;6.320;2023-06-14T01:48:25;101487.78;;;18.24
58102;BMP280;52034;51.926;6.320;2023-06-14T01:49:26;101482.09;;;18.22
58102;BMP280;52034;51.926;6.320;2023-06-14T01:50:30;101494.81;;;18.19
58102;BMP280;52034;51.926;6.320;2023-06-14T01:51:31;101487.09;;;18.26
58102;BMP280;52034;51.926;6.320;2023-06-14T01:52:32;101485.72;;;18.27
58102;BMP280;52034;51.926;6.320;2023-06-14T01:53:32;101483.63;;;18.29
58102;BMP280;52034;51.926;6.320;2023-06-14T01:54:32;101494.94;;;18.25
58102;BMP280;52034;51.926;6.320;2023-06-14T01:55:33;101487.88;;;18.28
58102;BMP280;52034;51.926;6.320;2023-06-14T01:56:39;101491.41;;;18.27
58102;BMP280;52034;51.926;6.320;2023-06-14T01:57:40;101485.03;;;18.28
58102;BMP280;52034;51.926;6.320;2023-06-14T01:58:40;101480.03;;;18.27
58102;BMP280;52034;51.926;6.320;2023-06-14T01:59:41;101486.34;;;18.23
58102;BMP280;52034;51.926;6.320;2023-06-14T02:00:42;101487.84;;;18.26
58102;BMP280;52034;51.926;6.320;2023-06-14T02:01:47;101486.41;;;18.27
58102;BMP280;52034;51.926;6.320;2023-06-14T02:02:48;101488.47;;;18.21
58102;BMP280;52034;51.926;6.320;2023-06-14T02:03:49;101489.19;;;18.23
58102;BMP280;52034;51.926;6.320;2023-06-14T02:04:51;101479.16;;;18.16
58102;BMP280;52034;51.926;6.320;2023-06-14T02:05:52;101483.44;;;18.17
58102;BMP280;52034;51.926;6.320;2023-06-14T02:06:53;101480.63;;;18.19
58102;BMP280;52034;51.926;6.320;2023-06-14T02:07:53;101479.19;;;18.18
58102;BMP280;52034;51.926;6.320;2023-06-14T02:08:53;101484.84;;;18.16
58102;BMP280;52034;51.926;6.320;2023-06-14T02:09:54;101481.19;;;18.10
58102;BMP280;52034;51.926;6.320;2023-06-14T02:10:57;101482.66;;;18.13
58102;BMP280;52034;51.926;6.320;2023-06-14T02:11:57;101483.38;;;18.13
58102;BMP280;52034;51.926;6.320;2023-06-14T02:12:57;101479.09;;;18.12
58102;BMP280;52034;51.926;6.320;2023-06-14T02:13:57;101481.09;;;18.06
58102;BMP280;52034;51.926;6.320;2023-06-14T02:15:00;101481.78;;;18.04
58102;BMP280;52034;51.926;6.320;2023-06-14T02:16:01;101476.06;;;18.00
58102;BMP280;52034;51.926;6.320;2023-06-14T02:17:02;101483.84;;;18.00
58102;BMP280;52034;51.926;6.320;2023-06-14T02:18:03;101473.16;;;17.96
58102;BMP280;52034;51.926;6.320;2023-06-14T02:19:06;101477.41;;;17.95
58102;BMP280;52034;51.926;6.320;2023-06-14T02:20:07;101471.03;;;17.97
58102;BMP280;52034;51.926;6.320;2023-06-14T02:21:08;101474.56;;;17.95
58102;BMP280;52034;51.926;6.320;2023-06-14T02:22:08;101477.41;;;17.95
58102;BMP280;52034;51.926;6.320;2023-06-14T02:23:09;101477.38;;;17.93
58102;BMP280;52034;51.926;6.320;2023-06-14T02:24:09;101477.31;;;17.89
58102;BMP280;52034;51.926;6.320;2023-06-14T02:25:10;101463.03;;;17.85
58102;BMP280;52034;51.926;6.320;2023-06-14T02:26:10;101477.22;;;17.85
58102;BMP280;52034;51.926;6.320;2023-06-14T02:27:10;101472.25;;;17.86
58102;BMP280;52034;51.926;6.320;2023-06-14T02:28:11;101475.78;;;17.83
58102;BMP280;52034;51.926;6.320;2023-06-14T02:29:13;101480.06;;;17.83
58102;BMP280;52034;51.926;6.320;2023-06-14T02:30:15;101482.91;;;17.85
58102;BMP280;52034;51.926;6.320;2023-06-14T02:31:16;101478.63;;;17.83
58102;BMP280;52034;51.926;6.320;2023-06-14T02:32:16;101479.25;;;17.79
58102;BMP280;52034;51.926;6.320;2023-06-14T02:33:16;101480.00;;;17.81
58102;BMP280;52034;51.926;6.320;2023-06-14T02:34:17;101477.84;;;17.80
58102;BMP280;52034;51.926;6.320;2023-06-14T02:35:21;101476.44;;;17.81
58102;BMP280;52034;51.926;6.320;2023-06-14T02:36:22;101484.97;;;17.81
58102;BMP280;52034;51.926;6.320;2023-06-14T02:37:22;101483.41;;;17.74
58102;BMP280;52034;51.926;6.320;2023-06-14T02:38:23;101485.63;;;17.77
58102;BMP280;52034;51.926;6.320;2023-06-14T02:39:23;101479.91;;;17.76
58102;BMP280;52034;51.926;6.320;2023-06-14T02:40:24;101484.16;;;17.75
58102;BMP280;52034;51.926;6.320;2023-06-14T02:41:24;101482.72;;;17.74
58102;BMP280;52034;51.926;6.320;2023-06-14T02:42:27;101483.41;;;17.74
58102;BMP280;52034;51.926;6.320;2023-06-14T02:43:28;101482.00;;;17.71
58102;BMP280;52034;51.926;6.320;2023-06-14T02:44:29;101486.97;;;17.73
58102;BMP280;52034;51.926;6.320;2023-06-14T02:45:30;101483.25;;;17.64
58102;BMP280;52034;51.926;6.320;2023-06-14T02:46:30;101482.56;;;17.66
58102;BMP280;52034;51.926;6.320;2023-06-14T02:47:30;101480.56;;;17.72
58102;BMP280;52034;51.926;6.320;2023-06-14T02:48:30;101485.50;;;17.72
58102;BMP280;52034;51.926;6.320;2023-06-14T02:49:31;101482.00;;;17.73
58102;BMP280;52034;51.926;6.320;2023-06-14T02:50:31;101481.13;;;17.65
58102;BMP280;52034;51.926;6.320;2023-06-14T02:51:32;101481.88;;;17.67
58102;BMP280;52034;51.926;6.320;2023-06-14T02:52:33;101480.41;;;17.64
58102;BMP280;52034;51.926;6.320;2023-06-14T02:53:34;101486.09;;;17.64
58102;BMP280;52034;51.926;6.320;2023-06-14T02:54:34;101489.66;;;17.65
58102;BMP280;52034;51.926;6.320;2023-06-14T02:55:35;101490.38;;;17.67
58102;BMP280;52034;51.926;6.320;2023-06-14T02:56:40;101496.69;;;17.60
58102;BMP280;52034;51.926;6.320;2023-06-14T02:57:41;101484.53;;;17.55
58102;BMP280;52034;51.926;6.320;2023-06-14T02:58:43;101493.69;;;17.52
58102;BMP280;52034;51.926;6.320;2023-06-14T02:59:43;101493.69;;;17.52
58102;BMP280;52034;51.926;6.320;2023-06-14T03:00:44;101489.41;;;17.51
58102;BMP280;52034;51.926;6.320;2023-06-14T03:01:45;101487.94;;;17.50
58102;BMP280;52034;51.926;6.320;2023-06-14T03:02:48;101497.19;;;17.50
58102;BMP280;52034;51.926;6.320;2023-06-14T03:03:48;101499.38;;;17.52
58102;BMP280;52034;51.926;6.320;2023-06-14T03:04:49;101491.53;;;17.50
58102;BMP280;52034;51.926;6.320;2023-06-14T03:05:52;101500.66;;;17.45
58102;BMP280;52034;51.926;6.320;2023-06-14T03:06:57;101508.56;;;17.50
58102;BMP280;52034;51.926;6.320;2023-06-14T03:07:57;101502.16;;;17.50
58102;BMP280;52034;51.926;6.320;2023-06-14T03:08:58;101510.66;;;17.50
58102;BMP280;52034;51.926;6.320;2023-06-14T03:10:04;101499.97;;;17.46
58102;BMP280;52034;51.926;6.320;2023-06-14T03:11:05;101512.06;;;17.47
58102;BMP280;52034;51.926;6.320;2023-06-14T03:12:07;101514.81;;;17.43
58102;BMP280;52034;51.926;6.320;2023-06-14T03:13:08;101510.59;;;17.46
58102;BMP280;52034;51.926;6.320;2023-06-14T03:14:09;101513.44;;;17.46
58102;BMP280;52034;51.926;6.320;2023-06-14T03:15:11;101511.25;;;17.42
58102;BMP280;52034;51.926;6.320;2023-06-14T03:16:15;101512.00;;;17.45
58102;BMP280;52034;51.926;6.320;2023-06-14T03:17:20;101514.03;;;17.40
58102;BMP280;52034;51.926;6.320;2023-06-14T03:18:20;101519.09;;;17.44
58102;BMP280;52034;51.926;6.320;2023-06-14T03:19:23;101513.38;;;17.42
58102;BMP280;52034;51.926;6.320;2023-06-14T03:20:23;101523.19;;;17.37
58102;BMP280;52034;51.926;6.320;2023-06-14T03:21:24;101509.75;;;17.37
58102;BMP280;52034;51.926;6.320;2023-06-14T03:22:26;101512.53;;;17.35
58102;BMP280;52034;51.926;6.320;2023-06-14T03:23:28;101513.25;;;17.36
58102;BMP280;52034;51.926;6.320;2023-06-14T03:24:28;101520.41;;;17.39
58102;BMP280;52034;51.926;6.320;2023-06-14T03:25:31;101517.53;;;17.37
58102;BMP280;52034;51.926;6.320;2023-06-14T03:26:34;101518.09;;;17.29
58102;BMP280;52034;51.926;6.320;2023-06-14T03:27:37;101519.53;;;17.30
58102;BMP280;52034;51.926;6.320;2023-06-14T03:28:38;101513.06;;;17.26
58102;BMP280;52034;51.926;6.320;2023-06-14T03:29:39;101518.59;;;17.20
58102;BMP280;52034;51.926;6.320;2023-06-14T03:30:40;101520.91;;;17.27
58102;BMP280;52034;51.926;6.320;2023-06-14T03:31:57;101520.75;;;17.21
58102;BMP280;52034;51.926;6.320;2023-06-14T03:32:59;101527.81;;;17.18
58102;BMP280;52034;51.926;6.320;2023-06-14T03:34:02;101528.47;;;17.17
58102;BMP280;52034;51.926;6.320;2023-06-14T03:35:02;101526.31;;;17.15
58102;BMP280;52034;51.926;6.320;2023-06-14T03:36:03;101527.00;;;17.14
58102;BMP280;52034;51.926;6.320;2023-06-14T03:37:04;101524.13;;;17.12
58102;BMP280;52034;51.926;6.320;2023-06-14T03:38:04;101533.38;;;17.14
58102;BMP280;52034;51.926;6.320;2023-06-14T03:39:05;101528.38;;;17.11
58102;BMP280;52034;51.926;6.320;2023-06-14T03:40:06;101526.19;;;17.09
58102;BMP280;52034;51.926;6.320;2023-06-14T03:41:10;101524.81;;;17.10
58102;BMP280;52034;51.926;6.320;2023-06-14T03:42:13;101531.31;;;17.17
58102;BMP280;52034;51.926;6.320;2023-06-14T03:43:14;101534.81;;;17.13
58102;BMP280;52034;51.926;6.320;2023-06-14T03:44:16;101528.34;;;17.09
58102;BMP280;52034;51.926;6.320;2023-06-14T03:45:17;101537.56;;;17.09
58102;BMP280;52034;51.926;6.320;2023-06-14T03:46:18;101538.25;;;17.10
58102;BMP280;52034;51.926;6.320;2023-06-14T03:47:18;101539.03;;;17.12
58102;BMP280;52034;51.926;6.320;2023-06-14T03:48:19;101534.72;;;17.09
58102;BMP280;52034;51.926;6.320;2023-06-14T03:49:19;101529.81;;;17.12
58102;BMP280;52034;51.926;6.320;2023-06-14T03:50:20;101530.53;;;17.14
58102;BMP280;52034;51.926;6.320;2023-06-14T03:51:20;101541.19;;;17.14
58102;BMP280;52034;51.926;6.320;2023-06-14T03:52:20;101545.47;;;17.15
58102;BMP280;52034;51.926;6.320;2023-06-14T03:53:22;101535.47;;;17.12
58102;BMP280;52034;51.926;6.320;2023-06-14T03:54:28;101544.13;;;17.18
58102;BMP280;52034;51.926;6.320;2023-06-14T03:55:29;101536.41;;;17.22
58102;BMP280;52034;51.926;6.320;2023-06-14T03:56:31;101540.06;;;17.29
58102;BMP280;52034;51.926;6.320;2023-06-14T03:57:32;101549.31;;;17.29
58102;BMP280;52034;51.926;6.320;2023-06-14T03:58:33;101541.50;;;17.30
58102;BMP280;52034;51.926;6.320;2023-06-14T03:59:33;101546.50;;;17.31
58102;BMP280;52034;51.926;6.320;2023-06-14T04:00:33;101545.94;;;17.39
58102;BMP280;52034;51.926;6.320;2023-06-14T04:01:35;101534.44;;;17.31
58102;BMP280;52034;51.926;6.320;2023-06-14T04:02:35;101540.97;;;17.37
58102;BMP280;52034;51.926;6.320;2023-06-14T04:03:36;101549.41;;;17.33
58102;BMP280;52034;51.926;6.320;2023-06-14T04:04:37;101545.88;;;17.35
58102;BMP280;52034;51.926;6.320;2023-06-14T04:05:39;101543.66;;;17.31
58102;BMP280;52034;51.926;6.320;2023-06-14T04:06:42;101546.56;;;17.33
58102;BMP280;52034;51.926;6.320;2023-06-14T04:07:45;101543.16;;;17.41
58102;BMP280;52034;51.926;6.320;2023-06-14T04:08:45;101553.06;;;17.38
58102;BMP280;52034;51.926;6.320;2023-06-14T04:09:46;101551.56;;;17.35
58102;BMP280;52034;51.926;6.320;2023-06-14T04:10:46;101558.72;;;17.38
58102;BMP280;52034;51.926;6.320;2023-06-14T04:11:48;101561.72;;;17.46
58102;BMP280;52034;51.926;6.320;2023-06-14T04:12:48;101550.34;;;17.46
58102;BMP280;52034;51.926;6.320;2023-06-14T04:13:51;101558.94;;;17.50
58102;BMP280;52034;51.926;6.320;2023-06-14T04:14:54;101557.56;;;17.51
58102;BMP280;52034;51.926;6.320;2023-06-14T04:15:55;101567.53;;;17.54
58102;BMP280;52034;51.926;6.320;2023-06-14T04:17:00;101563.25;;;17.53
58102;BMP280;52034;51.926;6.320;2023-06-14T04:18:01;101560.53;;;17.59
58102;BMP280;52034;51.926;6.320;2023-06-14T04:19:02;101566.28;;;17.61
58102;BMP280;52034;51.926;6.320;2023-06-14T04:20:03;101573.41;;;17.64
58102;BMP280;52034;51.926;6.320;2023-06-14T04:21:05;101563.44;;;17.61
58102;BMP280;52034;51.926;6.320;2023-06-14T04:22:06;101573.56;;;17.72
58102;BMP280;52034;51.926;6.320;2023-06-14T04:23:16;101575.03;;;17.73
58102;BMP280;52034;51.926;6.320;2023-06-14T04:24:18;101575.03;;;17.73
58102;BMP280;52034;51.926;6.320;2023-06-14T04:25:21;101572.25;;;17.77
58102;BMP280;52034;51.926;6.320;2023-06-14T04:26:23;101573.72;;;17.80
58102;BMP280;52034;51.926;6.320;2023-06-14T04:27:31;101574.44;;;17.80
58102;BMP280;52034;51.926;6.320;2023-06-14T04:28:34;101575.97;;;17.87
58102;BMP280;52034;51.926;6.320;2023-06-14T04:29:39;101582.44;;;17.89
58102;BMP280;52034;51.926;6.320;2023-06-14T04:30:44;101576.09;;;17.93
58102;BMP280;52034;51.926;6.320;2023-06-14T04:31:48;101582.53;;;17.95
58102;BMP280;52034;51.926;6.320;2023-06-14T04:32:49;101576.94;;;17.99
58102;BMP280;52034;51.926;6.320;2023-06-14T04:33:53;101581.16;;;17.98
58102;BMP280;52034;51.926;6.320;2023-06-14T04:34:56;101587.72;;;18.07
58102;BMP280;52034;51.926;6.320;2023-06-14T04:35:58;101579.91;;;18.07
58102;BMP280;52034;51.926;6.320;2023-06-14T04:37:00;101583.53;;;18.12
58102;BMP280;52034;51.926;6.320;2023-06-14T04:38:06;101581.38;;;18.10
58102;BMP280;52034;51.926;6.320;2023-06-14T04:39:09;101586.94;;;18.02
58102;BMP280;52034;51.926;6.320;2023-06-14T04:40:10;101580.63;;;18.08
58102;BMP280;52034;51.926;6.320;2023-06-14T04:41:12;101582.84;;;18.13
58102;BMP280;52034;51.926;6.320;2023-06-14T04:42:12;101585.63;;;18.09
58102;BMP280;52034;51.926;6.320;2023-06-14T04:43:14;101585.00;;;18.15
58102;BMP280;52034;51.926;6.320;2023-06-14T04:44:18;101592.19;;;18.18
58102;BMP280;52034;51.926;6.320;2023-06-14T04:45:21;101588.59;;;18.17
58102;BMP280;52034;51.926;6.320;2023-06-14T04:46:23;101592.97;;;18.24
58102;BMP280;52034;51.926;6.320;2023-06-14T04:47:24;101588.69;;;18.23
58102;BMP280;52034;51.926;6.320;2023-06-14T04:48:30;101593.63;;;18.21
58102;BMP280;52034;51.926;6.320;2023-06-14T04:49:31;101593.69;;;18.25
58102;BMP280;52034;51.926;6.320;2023-06-14T04:50:32;101595.75;;;18.20
58102;BMP280;52034;51.926;6.320;2023-06-14T04:51:33;101598.00;;;18.28
58102;BMP280;52034;51.926;6.320;2023-06-14T04:52:33;101602.38;;;18.33
58102;BMP280;52034;51.926;6.320;2023-06-14T04:53:35;101598.22;;;18.40
58102;BMP280;52034;51.926;6.320;2023-06-14T04:54:36;101593.28;;;18.42
58102;BMP280;52034;51.926;6.320;2023-06-14T04:55:42;101595.44;;;18.44
58102;BMP280;52034;51.926;6.320;2023-06-14T04:56:45;101596.22;;;18.48
58102;BMP280;52034;51.926;6.320;2023-06-14T04:57:46;101598.53;;;18.62
58102;BMP280;52034;51.926;6.320;2023-06-14T04:58:47;101604.91;;;18.58
58102;BMP280;52034;51.926;6.320;2023-06-14T04:59:48;101609.28;;;18.65
58102;BMP280;52034;51.926;6.320;2023-06-14T05:00:51;101602.91;;;18.67
58102;BMP280;52034;51.926;6.320;2023-06-14T05:01:54;101602.19;;;18.68
58102;BMP280;52034;51.926;6.320;2023-06-14T05:02:57;101610.06;;;18.70
58102;BMP280;52034;51.926;6.320;2023-06-14T05:03:58;101601.72;;;18.84
58102;BMP280;52034;51.926;6.320;2023-06-14T05:04:58;101612.38;;;18.81
58102;BMP280;52034;51.926;6.320;2023-06-14T05:05:59;101606.03;;;18.87
58102;BMP280;52034;51.926;6.320;2023-06-14T05:07:00;101612.44;;;18.87
58102;BMP280;52034;51.926;6.320;2023-06-14T05:08:02;101613.31;;;19.00
58102;BMP280;52034;51.926;6.320;2023-06-14T05:09:03;101609.13;;;19.03
58102;BMP280;52034;51.926;6.320;2023-06-14T05:10:03;101605.56;;;19.04
58102;BMP280;52034;51.926;6.320;2023-06-14T05:11:04;101612.75;;;19.09
58102;BMP280;52034;51.926;6.320;2023-06-14T05:12:05;101606.31;;;19.07
58102;BMP280;52034;51.926;6.320;2023-06-14T05:13:08;101607.06;;;19.09
58102;BMP280;52034;51.926;6.320;2023-06-14T05:14:08;101620.56;;;19.09
58102;BMP280;52034;51.926;6.320;2023-06-14T05:15:09;101617.69;;;19.07
58102;BMP280;52034;51.926;6.320;2023-06-14T05:16:11;101617.72;;;19.09
58102;BMP280;52034;51.926;6.320;2023-06-14T05:17:11;101617.13;;;19.18
58102;BMP280;52034;51.926;6.320;2023-06-14T05:18:12;101615.88;;;19.31
58102;BMP280;52034;51.926;6.320;2023-06-14T05:19:13;101625.94;;;19.38
58102;BMP280;52034;51.926;6.320;2023-06-14T05:20:14;101617.31;;;19.34
58102;BMP280;52034;51.926;6.320;2023-06-14T05:21:15;101625.19;;;19.34
58102;BMP280;52034;51.926;6.320;2023-06-14T05:22:18;101620.22;;;19.36
58102;BMP280;52034;51.926;6.320;2023-06-14T05:23:18;101622.38;;;19.38
58102;BMP280;52034;51.926;6.320;2023-06-14T05:24:19;101622.47;;;19.46
58102;BMP280;52034;51.926;6.320;2023-06-14T05:25:20;101620.34;;;19.48
58102;BMP280;52034;51.926;6.320;2023-06-14T05:26:21;101619.72;;;19.56
58102;BMP280;52034;51.926;6.320;2023-06-14T05:27:23;101619.03;;;19.55
58102;BMP280;52034;51.926;6.320;2023-06-14T05:28:25;101621.06;;;19.49
58102;BMP280;52034;51.926;6.320;2023-06-14T05:29:25;101626.19;;;19.58
58102;BMP280;52034;51.926;6.320;2023-06-14T05:30:26;101624.78;;;19.59
58102;BMP280;52034;51.926;6.320;2023-06-14T05:31:27;101626.94;;;19.65
58102;BMP280;52034;51.926;6.320;2023-06-14T05:32:28;101627.78;;;19.75
58102;BMP280;52034;51.926;6.320;2023-06-14T05:33:28;101618.59;;;19.83
58102;BMP280;52034;51.926;6.320;2023-06-14T05:34:28;101614.97;;;19.76
58102;BMP280;52034;51.926;6.320;2023-06-14T05:35:29;101620.81;;;19.88
58102;BMP280;52034;51.926;6.320;2023-06-14T05:36:30;101628.00;;;19.99
58102;BMP280;52034;51.926;6.320;2023-06-14T05:37:30;101633.66;;;19.93
58102;BMP280;52034;51.926;6.320;2023-06-14T05:38:31;101623.75;;;20.02
58102;BMP280;52034;51.926;6.320;2023-06-14T05:39:31;101626.00;;;20.09
58102;BMP280;52034;51.926;6.320;2023-06-14T05:40:31;101633.88;;;20.15
58102;BMP280;52034;51.926;6.320;2023-06-14T05:41:32;101628.19;;;20.19
58102;BMP280;52034;51.926;6.320;2023-06-14T05:42:32;101626.06;;;20.19
58102;BMP280;52034;51.926;6.320;2023-06-14T05:43:33;101626.84;;;20.28
58102;BMP280;52034;51.926;6.320;2023-06-14T05:44:33;101628.34;;;20.37
58102;BMP280;52034;51.926;6.320;2023-06-14T05:45:33;101624.88;;;20.50
58102;BMP280;52034;51.926;6.320;2023-06-14T05:46:34;101635.56;;;20.46
58102;BMP280;52034;51.926;6.320;2023-06-14T05:47:34;101622.00;;;20.46
58102;BMP280;52034;51.926;6.320;2023-06-14T05:48:35;101632.69;;;20.48
58102;BMP280;52034;51.926;6.320;2023-06-14T05:49:35;101626.38;;;20.57
58102;BMP280;52034;51.926;6.320;2023-06-14T05:50:35;101632.78;;;20.56